createdAt,value
2023-05-12T00:00:57.011Z,1013.63
2023-05-12T00:01:57.045Z,1013.64
2023-05-12T00:02:57.138Z,1013.61
2023-05-12T00:03:57.367Z,1013.65
2023-05-12T00:04:57.292Z,1013.68
2023-05-12T00:05:57.181Z,1013.67
2023-05-12T00:06:57.221Z,1013.65
2023-05-12T00:07:57.251Z,1013.63
2023-05-12T00:08:57.297Z,1013.63
2023-05-12T00:09:57.324Z,1013.65
2023-05-12T00:10:57.355Z,1013.66
2023-05-12T00:11:57.390Z,1013.60
2023-05-12T00:12:57.458Z,1013.61
2023-05-12T00:13:57.527Z,1013.63
2023-05-12T00:14:57.495Z,1013.62
2023-05-12T00:15:57.603Z,1013.63
2023-05-12T00:16:57.603Z,1013.62
2023-05-12T00:17:57.660Z,1013.63
2023-05-12T00:18:57.655Z,1013.64
2023-05-12T00:19:57.666Z,1013.61
2023-05-12T00:20:57.706Z,1013.58
2023-05-12T00:21:57.740Z,1013.61
2023-05-12T00:22:57.777Z,1013.60
2023-05-12T00:23:57.810Z,1013.60
2023-05-12T00:24:57.839Z,1013.62
2023-05-12T00:25:57.877Z,1013.60
2023-05-12T00:26:57.906Z,1013.61
2023-05-12T00:27:57.943Z,1013.61
2023-05-12T00:28:57.983Z,1013.58
2023-05-12T00:29:58.012Z,1013.58
2023-05-12T00:30:58.049Z,1013.56
2023-05-12T00:31:58.133Z,1013.60
2023-05-12T00:32:58.156Z,1013.63
2023-05-12T00:33:58.164Z,1013.64
2023-05-12T00:34:58.199Z,1013.59
2023-05-12T00:35:58.224Z,1013.66
2023-05-12T00:36:58.261Z,1013.59
2023-05-12T00:37:58.293Z,1013.63
2023-05-12T00:38:58.349Z,1013.64
2023-05-12T00:39:58.362Z,1013.64
2023-05-12T00:40:58.403Z,1013.63
2023-05-12T00:41:58.436Z,1013.66
2023-05-12T00:42:58.469Z,1013.64
2023-05-12T00:43:58.501Z,1013.63
2023-05-12T00:44:58.546Z,1013.66
2023-05-12T00:45:58.590Z,1013.64
2023-05-12T00:46:58.604Z,1013.64
2023-05-12T00:47:58.701Z,1013.66
2023-05-12T00:48:58.675Z,1013.67
2023-05-12T00:49:58.709Z,1013.65
2023-05-12T00:50:58.749Z,1013.64
2023-05-12T00:51:58.776Z,1013.67
2023-05-12T00:52:58.816Z,1013.66
2023-05-12T00:53:58.846Z,1013.64
2023-05-12T00:54:58.878Z,1013.65
2023-05-12T00:55:58.919Z,1013.66
2023-05-12T00:56:58.946Z,1013.66
2023-05-12T00:57:58.991Z,1013.68
2023-05-12T00:58:59.043Z,1013.67
2023-05-12T00:59:59.071Z,1013.69
2023-05-12T01:00:59.097Z,1013.64
2023-05-12T01:01:59.119Z,1013.67
2023-05-12T01:02:59.201Z,1013.64
2023-05-12T01:03:59.205Z,1013.67
2023-05-12T01:04:59.225Z,1013.65
2023-05-12T01:05:59.262Z,1013.65
2023-05-12T01:06:59.297Z,1013.67
2023-05-12T01:07:59.328Z,1013.62
2023-05-12T01:08:59.371Z,1013.65
2023-05-12T01:09:59.408Z,1013.65
2023-05-12T01:10:59.432Z,1013.66
2023-05-12T01:11:59.475Z,1013.69
2023-05-12T01:12:59.501Z,1013.69
2023-05-12T01:13:59.541Z,1013.69
2023-05-12T01:14:59.573Z,1013.72
2023-05-12T01:15:59.603Z,1013.70
2023-05-12T01:16:59.678Z,1013.66
2023-05-12T01:17:59.705Z,1013.71
2023-05-12T01:18:59.772Z,1013.70
2023-05-12T01:19:59.738Z,1013.71
2023-05-12T01:20:59.783Z,1013.75
2023-05-12T01:21:59.809Z,1013.74
2023-05-12T01:22:59.840Z,1013.77
2023-05-12T01:23:59.871Z,1013.75
2023-05-12T01:24:59.917Z,1013.72
2023-05-12T01:25:59.944Z,1013.74
2023-05-12T01:26:59.975Z,1013.74
2023-05-12T01:28:00.013Z,1013.79
2023-05-12T01:29:00.047Z,1013.77
2023-05-12T01:30:00.103Z,1013.76
2023-05-12T01:31:00.147Z,1013.77
2023-05-12T01:32:00.154Z,1013.77
2023-05-12T01:33:00.321Z,1013.76
2023-05-12T01:34:00.260Z,1013.83
2023-05-12T01:35:00.272Z,1013.76
2023-05-12T01:36:00.287Z,1013.79
2023-05-12T01:37:00.312Z,1013.82
2023-05-12T01:38:00.349Z,1013.77
2023-05-12T01:39:00.383Z,1013.81
2023-05-12T01:40:00.425Z,1013.83
2023-05-12T01:41:00.452Z,1013.80
2023-05-12T01:42:00.485Z,1013.78
2023-05-12T01:43:00.518Z,1013.80
2023-05-12T01:44:00.575Z,1013.77
2023-05-12T01:45:00.593Z,1013.81
2023-05-12T01:46:00.664Z,1013.82
2023-05-12T01:47:00.653Z,1013.82
2023-05-12T01:48:00.732Z,1013.79
2023-05-12T01:49:00.730Z,1013.80
2023-05-12T01:50:00.756Z,1013.78
2023-05-12T01:51:00.792Z,1013.85
2023-05-12T01:52:00.829Z,1013.83
2023-05-12T01:53:00.857Z,1013.84
2023-05-12T01:54:00.899Z,1013.83
2023-05-12T01:55:00.952Z,1013.85
2023-05-12T01:56:00.959Z,1013.84
2023-05-12T01:57:00.995Z,1013.80
2023-05-12T01:58:01.034Z,1013.80
2023-05-12T01:59:01.142Z,1013.78
2023-05-12T02:00:01.094Z,1013.82
2023-05-12T02:01:01.135Z,1013.83
2023-05-12T02:02:01.219Z,1013.81
2023-05-12T02:03:01.268Z,1013.84
2023-05-12T02:04:01.314Z,1013.84
2023-05-12T02:05:01.278Z,1013.82
2023-05-12T02:06:01.297Z,1013.81
2023-05-12T02:07:01.353Z,1013.82
2023-05-12T02:08:01.366Z,1013.82
2023-05-12T02:09:01.403Z,1013.87
2023-05-12T02:10:01.475Z,1013.86
2023-05-12T02:11:01.467Z,1013.90
2023-05-12T02:12:01.509Z,1013.89
2023-05-12T02:13:01.534Z,1013.92
2023-05-12T02:14:01.570Z,1013.97
2023-05-12T02:15:01.609Z,1013.98
2023-05-12T02:16:01.676Z,1013.99
2023-05-12T02:17:01.669Z,1014.04
2023-05-12T02:18:01.741Z,1014.00
2023-05-12T02:19:01.844Z,1014.00
2023-05-12T02:20:01.776Z,1014.04
2023-05-12T02:21:01.835Z,1013.97
2023-05-12T02:22:01.851Z,1014.03
2023-05-12T02:23:01.877Z,1014.03
2023-05-12T02:24:01.911Z,1014.05
2023-05-12T02:25:01.952Z,1014.02
2023-05-12T02:26:01.987Z,1014.03
2023-05-12T02:27:02.010Z,1014.08
2023-05-12T02:28:02.052Z,1014.06
2023-05-12T02:29:02.080Z,1014.08
2023-05-12T02:30:02.117Z,1014.08
2023-05-12T02:31:02.155Z,1014.05
2023-05-12T02:32:02.271Z,1014.10
2023-05-12T02:33:02.256Z,1014.11
2023-05-12T02:34:04.385Z,1014.07
2023-05-12T02:35:02.286Z,1014.09
2023-05-12T02:36:02.316Z,1014.12
2023-05-12T02:37:02.352Z,1014.13
2023-05-12T02:38:02.382Z,1014.11
2023-05-12T02:39:02.422Z,1014.14
2023-05-12T02:40:02.453Z,1014.12
2023-05-12T02:41:02.483Z,1014.11
2023-05-12T02:42:02.514Z,1014.10
2023-05-12T02:43:02.555Z,1014.09
2023-05-12T02:44:02.587Z,1014.10
2023-05-12T02:45:02.616Z,1014.12
2023-05-12T02:46:02.711Z,1014.11
2023-05-12T02:47:02.692Z,1014.12
2023-05-12T02:48:02.802Z,1014.10
2023-05-12T02:49:02.758Z,1014.14
2023-05-12T02:50:02.790Z,1014.12
2023-05-12T02:51:02.824Z,1014.12
2023-05-12T02:52:02.867Z,1014.10
2023-05-12T02:53:02.952Z,1014.09
2023-05-12T02:54:02.924Z,1014.08
2023-05-12T02:55:02.967Z,1014.10
2023-05-12T02:56:02.992Z,1014.08
2023-05-12T02:57:03.028Z,1014.06
2023-05-12T02:58:03.063Z,1014.09
2023-05-12T02:59:03.092Z,1014.07
2023-05-12T03:00:03.136Z,1014.07
2023-05-12T03:01:10.881Z,1014.06
2023-05-12T03:02:03.231Z,1014.06
2023-05-12T03:03:03.307Z,1014.02
2023-05-12T03:04:03.261Z,1014.04
2023-05-12T03:05:03.299Z,1014.01
2023-05-12T03:06:03.354Z,1014.06
2023-05-12T03:07:03.381Z,1014.05
2023-05-12T03:08:03.399Z,1014.05
2023-05-12T03:09:03.448Z,1014.02
2023-05-12T03:10:03.462Z,1014.04
2023-05-12T03:11:03.497Z,1014.05
2023-05-12T03:12:03.531Z,1014.06
2023-05-12T03:13:03.568Z,1014.07
2023-05-12T03:14:03.601Z,1014.06
2023-05-12T03:15:03.628Z,1014.09
2023-05-12T03:16:03.687Z,1014.07
2023-05-12T03:17:03.799Z,1014.05
2023-05-12T03:18:03.767Z,1014.08
2023-05-12T03:19:03.816Z,1014.08
2023-05-12T03:20:03.818Z,1014.08
2023-05-12T03:21:03.828Z,1014.09
2023-05-12T03:22:03.878Z,1014.09
2023-05-12T03:23:03.900Z,1014.11
2023-05-12T03:24:03.935Z,1014.14
2023-05-12T03:25:03.969Z,1014.13
2023-05-12T03:26:03.998Z,1014.08
2023-05-12T03:27:04.027Z,1014.13
2023-05-12T03:28:04.062Z,1014.14
2023-05-12T03:29:04.094Z,1014.15
2023-05-12T03:30:04.129Z,1014.15
2023-05-12T03:31:04.219Z,1014.18
2023-05-12T03:32:04.197Z,1014.18
2023-05-12T03:33:04.261Z,1014.14
2023-05-12T03:34:04.262Z,1014.13
2023-05-12T03:35:04.298Z,1014.13
2023-05-12T03:36:04.331Z,1014.14
2023-05-12T03:37:04.369Z,1014.12
2023-05-12T03:38:04.399Z,1014.09
2023-05-12T03:39:04.431Z,1014.12
2023-05-12T03:40:04.472Z,1014.15
2023-05-12T03:41:04.504Z,1014.16
2023-05-12T03:42:04.552Z,1014.17
2023-05-12T03:43:04.560Z,1014.22
2023-05-12T03:44:04.595Z,1014.19
2023-05-12T03:45:04.627Z,1014.19
2023-05-12T03:46:04.720Z,1014.18
2023-05-12T03:47:04.749Z,1014.19
2023-05-12T03:48:04.851Z,1014.18
2023-05-12T03:49:04.761Z,1014.21
2023-05-12T03:50:04.796Z,1014.19
2023-05-12T03:51:04.829Z,1014.18
2023-05-12T03:52:04.862Z,1014.19
2023-05-12T03:53:04.893Z,1014.18
2023-05-12T03:54:04.928Z,1014.17
2023-05-12T03:55:04.960Z,1014.26
2023-05-12T03:56:04.992Z,1014.25
2023-05-12T03:57:05.027Z,1014.25
2023-05-12T03:58:05.067Z,1014.27
2023-05-12T03:59:05.094Z,1014.26
2023-05-12T04:00:05.138Z,1014.24
2023-05-12T04:01:05.165Z,1014.23
2023-05-12T04:02:05.232Z,1014.22
2023-05-12T04:03:05.299Z,1014.23
2023-05-12T04:04:05.290Z,1014.25
2023-05-12T04:05:05.292Z,1014.26
2023-05-12T04:06:05.330Z,1014.25
2023-05-12T04:07:05.360Z,1014.28
2023-05-12T04:08:05.399Z,1014.29
2023-05-12T04:09:05.421Z,1014.23
2023-05-12T04:10:05.472Z,1014.27
2023-05-12T04:11:05.493Z,1014.21
2023-05-12T04:12:05.525Z,1014.27
2023-05-12T04:13:05.564Z,1014.24
2023-05-12T04:14:05.591Z,1014.29
2023-05-12T04:15:05.630Z,1014.31
2023-05-12T04:16:05.710Z,1014.33
2023-05-12T04:17:05.691Z,1014.28
2023-05-12T04:18:05.732Z,1014.31
2023-05-12T04:19:05.791Z,1014.31
2023-05-12T04:20:05.791Z,1014.30
2023-05-12T04:21:05.820Z,1014.33
2023-05-12T04:22:05.852Z,1014.29
2023-05-12T04:23:05.887Z,1014.29
2023-05-12T04:24:05.924Z,1014.35
2023-05-12T04:25:05.955Z,1014.33
2023-05-12T04:26:05.992Z,1014.31
2023-05-12T04:27:06.030Z,1014.32
2023-05-12T04:28:06.071Z,1014.37
2023-05-12T04:29:06.179Z,1014.37
2023-05-12T04:30:06.118Z,1014.36
2023-05-12T04:31:06.170Z,1014.36
2023-05-12T04:32:06.234Z,1014.36
2023-05-12T04:33:06.236Z,1014.35
2023-05-12T04:34:06.255Z,1014.37
2023-05-12T04:35:06.287Z,1014.37
2023-05-12T04:36:06.322Z,1014.34
2023-05-12T04:37:06.357Z,1014.37
2023-05-12T04:38:06.387Z,1014.36
2023-05-12T04:39:06.419Z,1014.38
2023-05-12T04:40:06.452Z,1014.39
2023-05-12T04:41:06.488Z,1014.39
2023-05-12T04:42:06.532Z,1014.38
2023-05-12T04:43:06.557Z,1014.40
2023-05-12T04:44:06.585Z,1014.41
2023-05-12T04:45:06.634Z,1014.45
2023-05-12T04:46:06.664Z,1014.43
2023-05-12T04:47:06.692Z,1014.46
2023-05-12T04:48:06.715Z,1014.48
2023-05-12T04:49:06.754Z,1014.48
2023-05-12T04:51:19.031Z,1014.52
2023-05-12T04:52:19.058Z,1014.52
2023-05-12T04:54:23.121Z,1014.54
2023-05-12T04:55:23.136Z,1014.55
2023-05-12T04:57:27.195Z,1014.53
2023-05-12T04:58:27.214Z,1014.56
2023-05-12T05:00:31.293Z,1014.59
2023-05-12T05:01:31.327Z,1014.60
2023-05-12T05:03:24.374Z,1014.63
2023-05-12T05:04:24.308Z,1014.60
2023-05-12T05:06:28.379Z,1014.64
2023-05-12T05:07:28.385Z,1014.63
2023-05-12T05:09:33.389Z,1014.67
2023-05-12T05:10:32.463Z,1014.69
2023-05-12T05:12:36.543Z,1014.69
2023-05-12T05:13:36.549Z,1014.67
2023-05-12T05:14:36.576Z,1014.70
2023-05-12T05:15:36.666Z,1014.71
2023-05-12T05:16:36.653Z,1014.71
2023-05-12T05:17:36.723Z,1014.73
2023-05-12T05:18:36.752Z,1014.71
2023-05-12T05:19:50.908Z,1014.72
2023-05-12T05:20:40.822Z,1014.74
2023-05-12T05:21:36.811Z,1014.76
2023-05-12T05:22:36.836Z,1014.75
2023-05-12T05:23:36.868Z,1014.78
2023-05-12T05:24:36.904Z,1014.78
2023-05-12T05:25:36.940Z,1014.76
2023-05-12T05:26:36.970Z,1014.80
2023-05-12T05:27:37.001Z,1014.78
2023-05-12T05:28:37.037Z,1014.76
2023-05-12T05:29:37.085Z,1014.78
2023-05-12T05:30:37.114Z,1014.82
2023-05-12T05:31:37.177Z,1014.78
2023-05-12T05:32:37.215Z,1014.82
2023-05-12T05:33:37.203Z,1014.79
2023-05-12T05:34:37.293Z,1014.78
2023-05-12T05:35:37.268Z,1014.75
2023-05-12T05:36:37.300Z,1014.79
2023-05-12T05:37:37.353Z,1014.74
2023-05-12T05:38:37.401Z,1014.79
2023-05-12T05:39:37.403Z,1014.77
2023-05-12T05:40:51.605Z,1014.79
2023-05-12T05:41:37.470Z,1014.83
2023-05-12T05:42:37.504Z,1014.79
2023-05-12T05:43:37.540Z,1014.81
2023-05-12T05:44:37.577Z,1014.82
2023-05-12T05:45:37.609Z,1014.84
2023-05-12T05:46:37.648Z,1014.86
2023-05-12T05:47:37.803Z,1014.84
2023-05-12T05:48:37.700Z,1014.85
2023-05-12T05:49:37.733Z,1014.85
2023-05-12T05:50:37.782Z,1014.87
2023-05-12T05:51:37.802Z,1014.90
2023-05-12T05:52:37.839Z,1014.86
2023-05-12T05:53:37.875Z,1014.93
2023-05-12T05:54:37.910Z,1014.92
2023-05-12T05:55:37.943Z,1014.90
2023-05-12T05:56:37.979Z,1014.91
2023-05-12T05:57:38.004Z,1014.89
2023-05-12T05:58:38.034Z,1014.93
2023-05-12T05:59:38.065Z,1014.94
2023-05-12T06:00:38.098Z,1014.94
2023-05-12T06:01:38.337Z,1014.97
2023-05-12T06:02:38.318Z,1014.93
2023-05-12T06:03:38.381Z,1014.94
2023-05-12T06:04:38.236Z,1014.95
2023-05-12T06:05:38.270Z,1014.97
2023-05-12T06:06:38.306Z,1014.95
2023-05-12T06:07:38.332Z,1014.95
2023-05-12T06:08:38.376Z,1014.93
2023-05-12T06:09:38.415Z,1014.97
2023-05-12T06:10:38.436Z,1014.97
2023-05-12T06:11:38.469Z,1014.94
2023-05-12T06:12:38.521Z,1014.97
2023-05-12T06:13:38.538Z,1015.00
2023-05-12T06:14:38.569Z,1014.96
2023-05-12T06:15:38.627Z,1014.99
2023-05-12T06:16:38.681Z,1015.03
2023-05-12T06:17:38.740Z,1015.00
2023-05-12T06:18:38.789Z,1015.01
2023-05-12T06:19:38.750Z,1015.00
2023-05-12T06:20:38.774Z,1014.99
2023-05-12T06:21:38.815Z,1015.05
2023-05-12T06:22:38.840Z,1015.04
2023-05-12T06:23:38.880Z,1015.03
2023-05-12T06:24:38.914Z,1015.05
2023-05-12T06:25:38.953Z,1015.06
2023-05-12T06:26:38.978Z,1015.06
2023-05-12T06:27:39.020Z,1015.13
2023-05-12T06:28:39.045Z,1015.11
2023-05-12T06:29:39.081Z,1015.12
2023-05-12T06:30:39.119Z,1015.13
2023-05-12T06:31:39.208Z,1015.13
2023-05-12T06:32:39.288Z,1015.14
2023-05-12T06:33:39.235Z,1015.12
2023-05-12T06:34:39.268Z,1015.16
2023-05-12T06:35:39.296Z,1015.16
2023-05-12T06:36:39.324Z,1015.21
2023-05-12T06:37:39.356Z,1015.21
2023-05-12T06:38:39.392Z,1015.21
2023-05-12T06:39:39.421Z,1015.22
2023-05-12T06:40:39.537Z,1015.22
2023-05-12T06:41:39.501Z,1015.17
2023-05-12T06:42:39.555Z,1015.16
2023-05-12T06:43:39.583Z,1015.15
2023-05-12T06:44:41.753Z,1015.19
2023-05-12T06:45:39.629Z,1015.18
2023-05-12T06:46:39.811Z,1015.23
2023-05-12T06:47:39.729Z,1015.20
2023-05-12T06:48:39.747Z,1015.21
2023-05-12T06:49:39.770Z,1015.20
2023-05-12T06:50:39.801Z,1015.20
2023-05-12T06:51:39.901Z,1015.17
2023-05-12T06:52:39.872Z,1015.19
2023-05-12T06:53:39.910Z,1015.21
2023-05-12T06:54:39.941Z,1015.21
2023-05-12T06:55:39.974Z,1015.23
2023-05-12T06:56:40.013Z,1015.22
2023-05-12T06:57:40.042Z,1015.21
2023-05-12T06:58:40.078Z,1015.17
2023-05-12T06:59:40.115Z,1015.16
2023-05-12T07:00:40.157Z,1015.16
2023-05-12T07:01:40.216Z,1015.14
2023-05-12T07:02:40.263Z,1015.19
2023-05-12T07:03:40.271Z,1015.16
2023-05-12T07:04:40.286Z,1015.17
2023-05-12T07:05:40.332Z,1015.18
2023-05-12T07:06:40.360Z,1015.18
2023-05-12T07:07:40.428Z,1015.17
2023-05-12T07:08:40.428Z,1015.20
2023-05-12T07:09:40.458Z,1015.21
2023-05-12T07:10:40.495Z,1015.20
2023-05-12T07:11:40.530Z,1015.24
2023-05-12T07:12:40.590Z,1015.25
2023-05-12T07:13:40.600Z,1015.24
2023-05-12T07:14:40.629Z,1015.25
2023-05-12T07:15:40.685Z,1015.27
2023-05-12T07:16:40.703Z,1015.25
2023-05-12T07:17:40.743Z,1015.28
2023-05-12T07:18:40.807Z,1015.29
2023-05-12T07:19:40.811Z,1015.29
2023-05-12T07:20:40.841Z,1015.27
2023-05-12T07:21:40.875Z,1015.23
2023-05-12T07:22:40.916Z,1015.24
2023-05-12T07:23:40.956Z,1015.27
2023-05-12T07:24:40.987Z,1015.27
2023-05-12T07:25:41.038Z,1015.33
2023-05-12T07:26:41.050Z,1015.27
2023-05-12T07:27:41.087Z,1015.30
2023-05-12T07:28:41.124Z,1015.32
2023-05-12T07:29:41.157Z,1015.30
2023-05-12T07:30:41.196Z,1015.32
2023-05-12T07:31:41.330Z,1015.33
2023-05-12T07:32:41.301Z,1015.33
2023-05-12T07:33:41.319Z,1015.38
2023-05-12T07:34:41.337Z,1015.34
2023-05-12T07:35:41.371Z,1015.32
2023-05-12T07:36:41.409Z,1015.34
2023-05-12T07:37:41.454Z,1015.32
2023-05-12T07:38:41.477Z,1015.31
2023-05-12T07:39:42.123Z,1015.30
2023-05-12T07:40:41.553Z,1015.29
2023-05-12T07:41:41.590Z,1015.28
2023-05-12T07:42:41.620Z,1015.31
2023-05-12T07:43:41.655Z,1015.34
2023-05-12T07:44:41.698Z,1015.25
2023-05-12T07:45:41.731Z,1015.27
2023-05-12T07:46:41.824Z,1015.28
2023-05-12T07:47:41.846Z,1015.24
2023-05-12T07:48:41.851Z,1015.32
2023-05-12T07:49:41.876Z,1015.28
2023-05-12T07:50:41.911Z,1015.28
2023-05-12T07:51:41.947Z,1015.27
2023-05-12T07:52:41.986Z,1015.28
2023-05-12T07:53:42.028Z,1015.26
2023-05-12T07:54:42.073Z,1015.29
2023-05-12T07:55:42.096Z,1015.29
2023-05-12T07:56:42.133Z,1015.28
2023-05-12T07:57:42.178Z,1015.30
2023-05-12T07:58:42.200Z,1015.28
2023-05-12T07:59:42.237Z,1015.30
2023-05-12T08:00:42.268Z,1015.36
2023-05-12T08:01:42.328Z,1015.34
2023-05-12T08:02:42.650Z,1015.32
2023-05-12T08:03:42.452Z,1015.32
2023-05-12T08:04:44.428Z,1015.31
2023-05-12T08:05:42.452Z,1015.29
2023-05-12T08:06:42.484Z,1015.31
2023-05-12T08:07:42.524Z,1015.30
2023-05-12T08:08:42.582Z,1015.29
2023-05-12T08:09:42.597Z,1015.31
2023-05-12T08:10:42.658Z,1015.34
2023-05-12T08:11:44.695Z,1015.32
2023-05-12T08:12:42.708Z,1015.31
2023-05-12T08:13:42.757Z,1015.33
2023-05-12T08:14:42.780Z,1015.33
2023-05-12T08:15:42.817Z,1015.31
2023-05-12T08:16:42.889Z,1015.31
2023-05-12T08:17:42.912Z,1015.32
2023-05-12T08:18:42.942Z,1015.32
2023-05-12T08:19:42.960Z,1015.31
2023-05-12T08:20:43.005Z,1015.29
2023-05-12T08:21:43.044Z,1015.28
2023-05-12T08:22:43.090Z,1015.29
2023-05-12T08:23:43.116Z,1015.32
2023-05-12T08:24:43.152Z,1015.32
2023-05-12T08:25:43.195Z,1015.32
2023-05-12T08:26:43.224Z,1015.33
2023-05-12T08:27:43.420Z,1015.25
2023-05-12T08:28:43.306Z,1015.28
2023-05-12T08:29:43.328Z,1015.27
2023-05-12T08:30:43.380Z,1015.27
2023-05-12T08:31:43.443Z,1015.27
2023-05-12T08:32:43.510Z,1015.31
2023-05-12T08:33:43.480Z,1015.35
2023-05-12T08:34:43.533Z,1015.29
2023-05-12T08:35:43.555Z,1015.30
2023-05-12T08:36:43.595Z,1015.30
2023-05-12T08:37:43.635Z,1015.35
2023-05-12T08:38:43.671Z,1015.33
2023-05-12T08:39:43.711Z,1015.35
2023-05-12T08:40:44.550Z,1015.35
2023-05-12T08:41:43.779Z,1015.34
2023-05-12T08:42:43.846Z,1015.34
2023-05-12T08:43:43.986Z,1015.30
2023-05-12T08:44:43.882Z,1015.29
2023-05-12T08:45:43.939Z,1015.27
2023-05-12T08:46:44.021Z,1015.29
2023-05-12T08:47:44.133Z,1015.25
2023-05-12T08:48:44.038Z,1015.35
2023-05-12T08:49:44.092Z,1015.36
2023-05-12T08:50:44.118Z,1015.37
2023-05-12T08:51:46.662Z,1015.31
2023-05-12T08:52:44.189Z,1015.29
2023-05-12T08:53:44.222Z,1015.36
2023-05-12T08:54:52.642Z,1015.40
2023-05-12T08:55:53.360Z,1015.38
2023-05-12T08:57:44.368Z,1015.36
2023-05-12T08:58:44.404Z,1015.45
2023-05-12T08:59:44.588Z,1015.35
2023-05-12T09:00:44.528Z,1015.35
2023-05-12T09:01:44.574Z,1015.36
2023-05-12T09:02:53.265Z,1015.33
2023-05-12T09:03:44.617Z,1015.32
2023-05-12T09:04:44.672Z,1015.26
2023-05-12T09:05:44.675Z,1015.31
2023-05-12T09:06:44.716Z,1015.30
2023-05-12T09:07:44.751Z,1015.28
2023-05-12T09:08:44.788Z,1015.36
2023-05-12T09:09:44.826Z,1015.27
2023-05-12T09:10:44.874Z,1015.31
2023-05-12T09:11:44.892Z,1015.24
2023-05-12T09:12:44.941Z,1015.24
2023-05-12T09:13:44.969Z,1015.30
2023-05-12T09:14:45.009Z,1015.32
2023-05-12T09:15:45.177Z,1015.36
2023-05-12T09:16:45.201Z,1015.29
2023-05-12T09:17:45.163Z,1015.28
2023-05-12T09:18:45.192Z,1015.28
2023-05-12T09:19:45.200Z,1015.27
2023-05-12T09:20:45.236Z,1015.28
2023-05-12T09:21:45.275Z,1015.28
2023-05-12T09:22:45.316Z,1015.27
2023-05-12T09:23:45.354Z,1015.28
2023-05-12T09:24:45.398Z,1015.29
2023-05-12T09:25:45.433Z,1015.25
2023-05-12T09:26:45.474Z,1015.22
2023-05-12T09:27:45.506Z,1015.26
2023-05-12T09:28:45.544Z,1015.29
2023-05-12T09:29:55.602Z,1015.29
2023-05-12T09:30:45.630Z,1015.29
2023-05-12T09:31:45.727Z,1015.27
2023-05-12T09:32:45.783Z,1015.24
2023-05-12T09:33:45.764Z,1015.31
2023-05-12T09:34:45.773Z,1015.27
2023-05-12T09:35:45.830Z,1015.26
2023-05-12T09:36:45.854Z,1015.22
2023-05-12T09:37:45.932Z,1015.24
2023-05-12T09:38:45.933Z,1015.26
2023-05-12T09:39:45.969Z,1015.17
2023-05-12T09:40:46.000Z,1015.18
2023-05-12T09:41:46.047Z,1015.12
2023-05-12T09:42:46.081Z,1015.15
2023-05-12T09:43:46.152Z,1015.21
2023-05-12T09:44:46.161Z,1015.19
2023-05-12T09:45:46.219Z,1015.21
2023-05-12T09:46:46.240Z,1015.23
2023-05-12T09:47:46.295Z,1015.21
2023-05-12T09:48:46.314Z,1015.23
2023-05-12T09:49:46.350Z,1015.22
2023-05-12T09:50:47.728Z,1015.21
2023-05-12T09:51:46.420Z,1015.11
2023-05-12T09:52:46.463Z,1015.17
2023-05-12T09:53:46.497Z,1015.07
2023-05-12T09:54:46.539Z,1015.16
2023-05-12T09:55:46.606Z,1015.25
2023-05-12T09:56:46.618Z,1015.20
2023-05-12T09:57:46.656Z,1015.20
2023-05-12T09:58:46.692Z,1015.11
2023-05-12T09:59:46.727Z,1015.26
2023-05-12T10:01:46.838Z,1015.21
2023-05-12T10:02:46.889Z,1015.24
2023-05-12T10:03:46.889Z,1015.27
2023-05-12T10:04:46.963Z,1015.26
2023-05-12T10:05:46.961Z,1015.19
2023-05-12T10:06:47.002Z,1015.16
2023-05-12T10:07:47.036Z,1015.24
2023-05-12T10:08:47.083Z,1015.23
2023-05-12T10:09:47.135Z,1015.22
2023-05-12T10:10:47.189Z,1015.19
2023-05-12T10:11:47.197Z,1015.12
2023-05-12T10:12:47.239Z,1015.08
2023-05-12T10:13:47.269Z,1015.13
2023-05-12T10:14:47.324Z,1015.19
2023-05-12T10:15:47.351Z,1015.19
2023-05-12T10:16:47.427Z,1015.17
2023-05-12T10:17:47.480Z,1015.15
2023-05-12T10:18:47.497Z,1015.16
2023-05-12T10:19:47.726Z,1015.21
2023-05-12T10:20:47.552Z,1015.23
2023-05-12T10:21:47.615Z,1015.16
2023-05-12T10:22:47.625Z,1015.16
2023-05-12T10:23:47.661Z,1015.12
2023-05-12T10:24:47.718Z,1015.17
2023-05-12T10:25:47.755Z,1015.18
2023-05-12T10:26:47.833Z,1015.09
2023-05-12T10:27:47.825Z,1015.07
2023-05-12T10:28:47.860Z,1015.16
2023-05-12T10:29:47.897Z,1015.11
2023-05-12T10:30:47.937Z,1015.08
2023-05-12T10:31:48.124Z,1015.05
2023-05-12T10:32:48.084Z,1015.09
2023-05-12T10:33:48.057Z,1015.08
2023-05-12T10:34:48.096Z,1014.99
2023-05-12T10:35:49.562Z,1014.96
2023-05-12T10:36:48.182Z,1015.02
2023-05-12T10:37:48.212Z,1014.96
2023-05-12T10:38:48.260Z,1014.98
2023-05-12T10:39:48.330Z,1015.04
2023-05-12T10:40:48.334Z,1015.09
2023-05-12T10:41:48.380Z,1015.02
2023-05-12T10:42:48.425Z,1015.04
2023-05-12T10:43:48.454Z,1014.97
2023-05-12T10:44:48.494Z,1014.95
2023-05-12T10:45:48.529Z,1014.98
2023-05-12T10:46:48.626Z,1014.98
2023-05-12T10:47:48.658Z,1014.98
2023-05-12T10:48:48.649Z,1015.00
2023-05-12T10:49:48.692Z,1015.02
2023-05-12T10:50:55.932Z,1015.11
2023-05-12T10:52:52.790Z,1014.95
2023-05-12T10:53:54.791Z,1014.96
2023-05-12T10:55:46.461Z,1014.98
2023-05-12T10:56:46.555Z,1015.03
2023-05-12T10:58:39.631Z,1015.03
2023-05-12T10:59:39.633Z,1014.96
2023-05-12T11:01:32.573Z,1015.00
2023-05-12T11:02:33.819Z,1014.87
2023-05-12T11:04:37.383Z,1015.03
2023-05-12T11:05:36.782Z,1014.93
2023-05-12T11:07:30.611Z,1014.93
2023-05-12T11:08:30.466Z,1014.99
2023-05-12T11:10:33.947Z,1014.96
2023-05-12T11:11:34.242Z,1014.94
2023-05-12T11:13:26.839Z,1015.01
2023-05-12T11:14:26.856Z,1014.98
2023-05-12T11:16:20.070Z,1014.98
2023-05-12T11:17:20.064Z,1014.95
2023-05-12T11:19:35.230Z,1014.96
2023-05-12T11:20:35.263Z,1014.95
2023-05-12T11:22:28.324Z,1014.90
2023-05-12T11:23:28.301Z,1014.91
2023-05-12T11:25:21.872Z,1014.89
2023-05-12T11:26:21.513Z,1014.88
2023-05-12T11:28:14.570Z,1014.88
2023-05-12T11:29:14.574Z,1014.91
2023-05-12T11:31:07.641Z,1014.98
2023-05-12T11:32:07.807Z,1014.96
2023-05-12T11:34:13.409Z,1015.04
2023-05-12T11:35:11.737Z,1015.03
2023-05-12T11:37:04.767Z,1015.02
2023-05-12T11:38:04.800Z,1015.00
2023-05-12T11:39:58.114Z,1015.00
2023-05-12T11:40:58.029Z,1015.01
2023-05-12T11:42:51.061Z,1014.90
2023-05-12T11:43:51.065Z,1014.93
2023-05-12T11:45:44.138Z,1014.96
2023-05-12T11:46:44.147Z,1014.93
2023-05-12T11:48:48.408Z,1014.90
2023-05-12T11:49:48.456Z,1014.95
2023-05-12T11:51:41.435Z,1015.03
2023-05-12T11:52:41.475Z,1015.08
2023-05-12T11:54:45.572Z,1015.07
2023-05-12T11:55:45.606Z,1015.08
2023-05-12T11:57:38.637Z,1015.06
2023-05-12T11:58:38.661Z,1015.13
2023-05-12T12:00:42.792Z,1015.04
2023-05-12T12:01:42.831Z,1015.02
2023-05-12T12:03:36.194Z,1015.02
2023-05-12T12:04:36.249Z,1015.00
2023-05-12T12:05:36.126Z,1014.96
2023-05-12T12:06:36.161Z,1015.01
2023-05-12T12:07:36.208Z,1015.01
2023-05-12T12:08:36.242Z,1015.05
2023-05-12T12:09:36.346Z,1015.15
2023-05-12T12:10:36.337Z,1015.05
2023-05-12T12:11:36.404Z,1015.09
2023-05-12T12:12:36.405Z,1015.01
2023-05-12T12:13:36.451Z,1015.04
2023-05-12T12:14:36.489Z,1015.05
2023-05-12T12:15:36.551Z,1015.02
2023-05-12T12:16:36.674Z,1015.03
2023-05-12T12:17:36.702Z,1014.99
2023-05-12T12:18:36.673Z,1015.06
2023-05-12T12:19:36.695Z,1015.03
2023-05-12T12:20:36.758Z,1015.01
2023-05-12T12:21:36.779Z,1015.00
2023-05-12T12:22:36.826Z,1015.04
2023-05-12T12:23:50.024Z,1015.03
2023-05-12T12:24:36.898Z,1015.04
2023-05-12T12:25:36.938Z,1015.07
2023-05-12T12:26:38.944Z,1015.12
2023-05-12T12:27:37.048Z,1015.00
2023-05-12T12:28:37.066Z,1014.96
2023-05-12T12:29:37.108Z,1015.01
2023-05-12T12:30:37.150Z,1015.01
2023-05-12T12:31:37.206Z,1014.97
2023-05-12T12:32:37.263Z,1014.99
2023-05-12T12:33:37.274Z,1015.01
2023-05-12T12:34:37.318Z,1015.02
2023-05-12T12:35:37.357Z,1015.00
2023-05-12T12:36:37.411Z,1014.98
2023-05-12T12:37:37.432Z,1014.94
2023-05-12T12:38:37.471Z,1015.08
2023-05-12T12:39:37.514Z,1014.97
2023-05-12T12:40:37.556Z,1015.03